Time;durP1;ratioP1;P1;durP2;ratioP2;P2;SDS_P1;SDS_P2;PMS_P1;PMS_P2;Temp;Humidity;BMP_temperature;BMP_pressure;BME280_temperature;BME280_humidity;BME280_pressure;Samples;Min_cycle;Max_cycle;Signal;HPM_P1;HPM_P2
2022/01/26 00:06:05;;;;;;;4.40;4.10;;;5.20;1.00;;;;;;5053969;28;20436;-72
2022/01/26 00:08:30;;;;;;;4.50;3.63;;;5.20;1.00;;;;;;5052936;28;20820;-75
2022/01/26 00:10:56;;;;;;;7.37;4.33;;;5.20;1.00;;;;;;5053661;28;20557;-74
2022/01/26 00:13:22;;;;;;;9.77;4.43;;;5.20;1.00;;;;;;5053994;28;20524;-72
2022/01/26 00:15:47;;;;;;;7.30;3.70;;;5.20;1.00;;;;;;5053751;28;20197;-73
2022/01/26 00:18:15;;;;;;;7.43;4.40;;;5.20;1.00;;;;;;5053210;28;20177;-74
2022/01/26 00:20:49;;;;;;;7.10;5.00;;;5.20;1.00;;;;;;5052657;28;20630;-73
2022/01/26 00:28:32;;;;;;;4.50;4.10;;;5.10;1.00;;;;;;5053756;28;20171;-73
2022/01/26 00:38:54;;;;;;;6.60;4.57;;;5.20;1.00;;;;;;5052632;28;20449;-73
2022/01/26 00:41:33;;;;;;;7.37;4.47;;;5.20;1.00;;;;;;5053307;28;20899;-72
2022/01/26 00:44:00;;;;;;;4.53;4.13;;;5.30;1.00;;;;;;5053315;28;20770;-73
2022/01/26 00:46:26;;;;;;;4.53;4.10;;;5.20;1.00;;;;;;5053300;28;20865;-74
2022/01/26 00:48:52;;;;;;;6.53;4.47;;;5.20;1.00;;;;;;5052277;28;20438;-72
2022/01/26 00:51:20;;;;;;;6.20;4.80;;;5.30;1.00;;;;;;5053065;28;20229;-72
2022/01/26 00:53:53;;;;;;;8.77;5.20;;;5.30;1.00;;;;;;5051979;28;20393;-73
2022/01/26 00:56:19;;;;;;;4.20;3.90;;;5.30;1.00;;;;;;5052990;28;20401;-73
2022/01/26 00:58:46;;;;;;;4.80;3.87;;;5.30;1.00;;;;;;5052170;28;20401;-74
2022/01/26 01:01:12;;;;;;;4.87;4.40;;;5.30;1.00;;;;;;5052874;28;20424;-73
2022/01/26 01:03:42;;;;;;;4.83;4.37;;;5.30;1.00;;;;;;5053024;28;20417;-73
2022/01/26 01:06:15;;;;;;;8.93;4.93;;;5.30;1.00;;;;;;5053096;28;20197;-73
2022/01/26 01:08:42;;;;;;;5.83;3.47;;;5.30;1.00;;;;;;5052171;28;20973;-74
2022/01/26 01:11:09;;;;;;;5.17;4.50;;;5.30;1.00;;;;;;5052269;28;20493;-74
2022/01/26 01:13:40;;;;;;;7.70;4.50;;;5.30;1.00;;;;;;5051446;28;20407;-74
2022/01/26 01:16:09;;;;;;;10.80;3.30;;;5.30;1.00;;;;;;5053013;28;20876;-72
2022/01/26 01:34:12;;;;;;;9.13;3.90;;;5.30;1.00;;;;;;5052958;28;20462;-72
2022/01/26 01:36:41;;;;;;;5.20;3.30;;;5.30;1.00;;;;;;5052814;28;20404;-72
2022/01/26 01:39:07;;;;;;;4.97;3.57;;;5.40;1.00;;;;;;5051804;28;20415;-73
2022/01/26 01:41:35;;;;;;;7.23;4.17;;;5.30;1.00;;;;;;5052604;28;20433;-74
2022/01/26 01:44:02;;;;;;;6.73;5.00;;;5.30;1.00;;;;;;5052755;28;20936;-73
2022/01/26 01:46:28;;;;;;;7.03;3.97;;;5.40;1.00;;;;;;5052557;28;20405;-72
2022/01/26 01:48:53;;;;;;;4.80;3.67;;;5.30;1.00;;;;;;5051335;28;20417;-74
2022/01/26 01:51:20;;;;;;;3.30;3.00;;;5.40;1.00;;;;;;5052035;28;20452;-74
2022/01/26 01:53:46;;;;;;;5.97;4.10;;;5.30;1.00;;;;;;5052552;28;20165;-73
2022/01/26 01:56:15;;;;;;;7.10;3.70;;;5.30;1.00;;;;;;5052731;28;20393;-73
2022/01/26 01:58:41;;;;;;;7.27;4.50;;;5.30;1.00;;;;;;5051720;28;20412;-74
2022/01/26 02:01:08;;;;;;;11.20;4.70;;;5.30;1.00;;;;;;5052362;28;20424;-73
2022/01/26 02:03:34;;;;;;;4.83;3.27;;;5.30;1.00;;;;;;5052421;28;20428;-74
2022/01/26 02:06:00;;;;;;;7.10;3.80;;;5.20;1.00;;;;;;5054595;28;20417;-72
2022/01/26 02:08:26;;;;;;;4.40;3.90;;;5.20;1.00;;;;;;5056015;28;20411;-74
2022/01/26 02:10:51;;;;;;;7.13;3.97;;;5.30;1.00;;;;;;5055344;28;20516;-73
2022/01/26 02:13:25;;;;;;;6.47;3.80;;;5.30;1.00;;;;;;5056020;28;20163;-74
2022/01/26 02:18:35;;;;;;;5.23;4.07;;;5.30;1.00;;;;;;5056153;28;20452;-73
2022/01/26 02:21:21;;;;;;;5.00;3.50;;;5.30;1.00;;;;;;5055859;28;20213;-73
2022/01/26 03:02:09;;;;;;;5.73;3.90;;;5.00;1.00;;;;;;5054560;28;20256;-73
2022/01/26 03:04:42;;;;;;;6.23;4.27;;;5.00;1.00;;;;;;5055148;28;20405;-74
2022/01/26 03:10:03;;;;;;;11.77;5.73;;;5.00;1.00;;;;;;5054241;28;20432;-72
2022/01/26 03:12:39;;;;;;;6.30;4.97;;;5.00;1.00;;;;;;5053558;28;20457;-72
2022/01/26 03:15:14;;;;;;;10.03;5.17;;;5.10;1.00;;;;;;5054898;28;20897;-73
2022/01/26 03:20:15;;;;;;;7.23;4.97;;;5.10;1.00;;;;;;5053979;28;20425;-73
2022/01/26 03:28:19;;;;;;;14.30;6.97;;;5.00;1.00;;;;;;5054641;28;20782;-74
2022/01/26 03:34:01;;;;;;;11.50;6.37;;;5.00;1.00;;;;;;5054819;28;20405;-74
2022/01/26 03:35:59;;;;;;;9.90;5.93;;;5.10;1.00;;;;;;5053915;28;20477;-73
2022/01/26 03:38:38;;;;;;;13.67;6.43;;;5.10;1.00;;;;;;5053952;28;21190;-72
2022/01/26 03:43:47;;;;;;;9.13;5.80;;;5.00;1.00;;;;;;5054398;28;20496;-74
2022/01/26 03:46:13;;;;;;;10.67;6.33;;;5.00;1.00;;;;;;5054286;28;20445;-74
2022/01/26 03:48:39;;;;;;;14.00;6.57;;;5.10;1.00;;;;;;5053265;28;20187;-74
2022/01/26 03:51:05;;;;;;;14.67;7.20;;;5.00;1.00;;;;;;5054120;28;20210;-72
2022/01/26 03:53:30;;;;;;;25.80;9.50;;;5.00;1.00;;;;;;5054312;28;20173;-72
2022/01/26 03:55:56;;;;;;;10.40;6.13;;;5.00;1.00;;;;;;5054160;28;20402;-73
2022/01/26 03:58:22;;;;;;;12.80;6.27;;;5.00;1.00;;;;;;5053230;28;20170;-74
2022/01/26 04:00:47;;;;;;;13.60;6.33;;;5.00;1.00;;;;;;5053311;28;20184;-72
2022/01/26 04:03:13;;;;;;;9.37;7.10;;;5.10;1.00;;;;;;5054002;28;20528;-72
2022/01/26 04:05:39;;;;;;;12.77;7.80;;;5.10;1.00;;;;;;5053842;28;20647;-73
2022/01/26 04:08:12;;;;;;;13.57;7.63;;;5.00;1.00;;;;;;5054053;28;20211;-72
2022/01/26 04:13:22;;;;;;;12.67;6.30;;;5.00;1.00;;;;;;5053936;28;20400;-73
2022/01/26 04:15:48;;;;;;;17.40;8.40;;;5.00;1.00;;;;;;5053745;28;20406;-74
2022/01/26 04:18:18;;;;;;;16.13;8.33;;;5.00;1.00;;;;;;5053103;28;20536;-73
2022/01/26 04:20:48;;;;;;;15.73;8.43;;;5.00;1.00;;;;;;5052722;28;20184;-73
2022/01/26 04:23:41;;;;;;;14.77;7.47;;;5.00;1.00;;;;;;5053623;28;20803;-73
2022/01/26 04:26:07;;;;;;;16.67;8.00;;;5.00;1.00;;;;;;5053689;28;20477;-74
2022/01/26 04:28:48;;;;;;;14.87;7.37;;;5.00;1.00;;;;;;5051623;28;20472;-75
2022/01/26 04:31:15;;;;;;;17.10;8.20;;;5.00;1.00;;;;;;5053359;28;20454;-73
2022/01/26 04:33:41;;;;;;;22.23;8.53;;;5.10;1.00;;;;;;5053455;28;20413;-74
2022/01/26 04:36:10;;;;;;;23.83;11.30;;;5.10;1.00;;;;;;5052951;28;20406;-71
2022/01/26 04:38:42;;;;;;;20.33;10.20;;;5.10;1.00;;;;;;5052432;28;20163;-74
2022/01/26 04:43:57;;;;;;;17.47;9.47;;;5.00;1.00;;;;;;5053347;28;20445;-73
2022/01/26 04:46:24;;;;;;;22.83;10.83;;;5.00;1.00;;;;;;5053277;28;20444;-74
2022/01/26 04:48:50;;;;;;;29.67;11.23;;;4.90;1.00;;;;;;5052178;28;20500;-73
2022/01/26 04:51:16;;;;;;;16.67;9.70;;;4.90;1.00;;;;;;5051738;28;20461;-74
2022/01/26 04:53:41;;;;;;;19.47;10.00;;;5.00;1.00;;;;;;5053141;28;20167;-73
2022/01/26 04:56:07;;;;;;;29.43;12.33;;;4.90;1.00;;;;;;5052719;28;20601;-72
2022/01/26 04:58:33;;;;;;;31.70;10.93;;;4.90;1.00;;;;;;5051007;28;20194;-74
2022/01/26 05:00:58;;;;;;;27.43;9.17;;;4.80;1.00;;;;;;5052883;28;20186;-74
2022/01/26 05:03:24;;;;;;;25.23;11.23;;;4.90;1.00;;;;;;5053153;28;20533;-74
2022/01/26 05:05:49;;;;;;;25.53;11.07;;;4.90;1.00;;;;;;5053043;28;20574;-74
2022/01/26 05:08:15;;;;;;;26.53;11.30;;;4.90;1.00;;;;;;5052966;28;20173;-74
2022/01/26 05:10:43;;;;;;;31.83;11.70;;;4.90;1.00;;;;;;5051951;28;20187;-74
2022/01/26 05:13:14;;;;;;;28.47;11.63;;;4.90;1.00;;;;;;5052702;28;20176;-74
2022/01/26 05:15:41;;;;;;;30.17;13.57;;;4.90;1.00;;;;;;5052547;28;20390;-74
2022/01/26 05:18:07;;;;;;;21.80;10.67;;;4.90;1.00;;;;;;5053022;28;20479;-73
2022/01/26 05:20:34;;;;;;;19.87;10.60;;;4.90;1.00;;;;;;5052003;28;20866;-72
2022/01/26 05:23:00;;;;;;;27.73;11.37;;;4.80;1.00;;;;;;5052836;28;20167;-74
2022/01/26 05:25:26;;;;;;;22.40;11.73;;;4.80;1.00;;;;;;5052917;28;20401;-72
2022/01/26 05:27:52;;;;;;;24.90;10.93;;;4.90;1.00;;;;;;5052835;28;20402;-74
2022/01/26 05:30:18;;;;;;;51.80;15.20;;;4.90;1.00;;;;;;5051483;28;20766;-73
2022/01/26 05:32:44;;;;;;;20.43;10.97;;;4.80;1.00;;;;;;5052567;28;20199;-73
2022/01/26 05:35:10;;;;;;;20.53;10.13;;;4.80;1.00;;;;;;5052665;28;20400;-75
2022/01/26 05:37:35;;;;;;;30.77;10.33;;;4.80;1.00;;;;;;5052612;28;20176;-73
2022/01/26 05:40:03;;;;;;;18.37;9.77;;;4.80;1.00;;;;;;5053091;28;20872;-73
2022/01/26 05:42:29;;;;;;;19.20;10.33;;;4.80;1.00;;;;;;5056693;28;20163;-73
2022/01/26 05:45:00;;;;;;;30.93;12.17;;;4.80;1.00;;;;;;5056696;28;20405;-74
2022/01/26 05:47:26;;;;;;;40.60;11.33;;;4.80;1.00;;;;;;5056641;28;20521;-73
2022/01/26 05:49:51;;;;;;;23.00;11.00;;;4.80;1.00;;;;;;5055049;28;20965;-74
2022/01/26 05:52:17;;;;;;;19.77;8.80;;;4.80;1.00;;;;;;5056250;28;20198;-74
2022/01/26 05:54:43;;;;;;;21.40;10.77;;;4.80;1.00;;;;;;5056701;28;20218;-74
2022/01/26 05:57:08;;;;;;;19.40;10.53;;;4.80;1.00;;;;;;5056300;28;20169;-73
2022/01/26 05:59:34;;;;;;;29.13;10.03;;;4.80;1.00;;;;;;5055443;28;20367;-74
2022/01/26 06:02:00;;;;;;;29.23;10.90;;;4.80;1.00;;;;;;5056355;28;20180;-72
2022/01/26 06:04:27;;;;;;;24.87;10.17;;;4.80;1.00;;;;;;5056205;28;20194;-73
2022/01/26 06:06:54;;;;;;;29.00;11.07;;;4.80;1.00;;;;;;5056276;28;20444;-73
2022/01/26 06:09:19;;;;;;;18.50;8.80;;;4.80;1.00;;;;;;5055316;28;20747;-73
2022/01/26 06:11:45;;;;;;;23.10;10.00;;;4.80;1.00;;;;;;5055342;28;20445;-74
2022/01/26 06:14:11;;;;;;;23.40;10.50;;;4.80;1.00;;;;;;5054918;28;20178;-73
2022/01/26 06:16:37;;;;;;;26.13;12.33;;;4.80;1.00;;;;;;5055994;28;20159;-73
2022/01/26 06:19:02;;;;;;;22.53;12.73;;;4.80;1.00;;;;;;5055140;28;20199;-73
2022/01/26 06:21:28;;;;;;;27.40;9.90;;;4.70;1.00;;;;;;5055875;28;20499;-74
2022/01/26 06:23:54;;;;;;;23.53;9.97;;;4.70;1.00;;;;;;5054970;28;20790;-73
2022/01/26 06:26:19;;;;;;;26.60;11.40;;;4.70;1.00;;;;;;5055416;28;20234;-73
2022/01/26 06:28:45;;;;;;;19.30;10.13;;;4.80;1.00;;;;;;5054798;28;20170;-74
2022/01/26 06:31:15;;;;;;;26.67;12.77;;;4.80;1.00;;;;;;5055622;28;20198;-73
2022/01/26 06:33:42;;;;;;;21.60;10.63;;;4.70;1.00;;;;;;5055416;28;20674;-74
2022/01/26 06:36:12;;;;;;;25.17;10.67;;;4.70;1.00;;;;;;5055785;28;20397;-72
2022/01/26 06:38:40;;;;;;;27.47;11.40;;;4.70;1.00;;;;;;5053533;28;20411;-74
2022/01/26 06:41:06;;;;;;;28.53;11.70;;;4.70;1.00;;;;;;5055521;28;20508;-79
2022/01/26 06:43:32;;;;;;;23.50;11.20;;;4.70;1.00;;;;;;5053998;28;20406;-77
2022/01/26 06:46:05;;;;;;;24.20;11.40;;;4.80;1.00;;;;;;5055217;28;20866;-76
2022/01/26 06:48:47;;;;;;;21.90;10.83;;;4.80;1.00;;;;;;5054446;28;20500;-80
2022/01/26 06:51:13;;;;;;;24.00;11.83;;;4.80;1.00;;;;;;5054384;28;20953;-72
2022/01/26 06:53:39;;;;;;;30.30;11.40;;;4.80;1.00;;;;;;5055149;28;20398;-74
2022/01/26 06:56:05;;;;;;;25.17;9.67;;;4.80;1.00;;;;;;5055328;28;20914;-72
2022/01/26 06:58:30;;;;;;;26.50;13.10;;;4.80;1.00;;;;;;5054450;28;20401;-75
2022/01/26 07:00:57;;;;;;;32.80;13.20;;;4.80;1.00;;;;;;5055220;28;20187;-73
2022/01/26 07:03:23;;;;;;;12.63;8.07;;;4.80;1.00;;;;;;5053773;28;20739;-73
2022/01/26 07:05:49;;;;;;;25.83;13.40;;;4.70;1.00;;;;;;5054656;28;20441;-73
2022/01/26 07:08:15;;;;;;;22.80;11.17;;;4.70;1.00;;;;;;5053796;28;20448;-72
2022/01/26 07:10:41;;;;;;;26.70;13.73;;;4.70;1.00;;;;;;5054258;28;20330;-72
2022/01/26 07:13:06;;;;;;;28.03;13.13;;;4.70;1.00;;;;;;5054944;28;20958;-73
2022/01/26 07:23:31;;;;;;;16.93;11.30;;;4.70;1.00;;;;;;5054726;28;20402;-73
2022/01/26 07:25:57;;;;;;;28.00;12.50;;;4.70;1.00;;;;;;5054631;28;20500;-73
2022/01/26 07:28:22;;;;;;;27.50;13.17;;;4.60;1.00;;;;;;5053205;28;20171;-74
2022/01/26 07:30:48;;;;;;;33.47;14.07;;;4.60;1.00;;;;;;5053807;28;20525;-73
2022/01/26 07:33:14;;;;;;;26.93;11.90;;;4.60;1.00;;;;;;5054594;28;20309;-73
2022/01/26 07:35:39;;;;;;;25.67;12.97;;;4.60;1.00;;;;;;5053288;28;20430;-73
2022/01/26 07:38:05;;;;;;;42.33;15.30;;;4.50;1.00;;;;;;5053849;28;20175;-73
2022/01/26 07:40:31;;;;;;;29.43;12.90;;;4.50;1.00;;;;;;5053430;28;20195;-74
2022/01/26 07:42:57;;;;;;;18.20;10.63;;;4.50;1.00;;;;;;5053321;28;20176;-74
2022/01/26 07:45:23;;;;;;;30.30;12.60;;;4.50;1.00;;;;;;5054459;28;20501;-74
2022/01/26 07:47:52;;;;;;;35.60;13.70;;;4.50;1.00;;;;;;5054200;28;20163;-73
2022/01/26 07:50:19;;;;;;;34.20;15.77;;;4.50;1.00;;;;;;5052948;28;20575;-74
2022/01/26 07:52:45;;;;;;;31.57;12.70;;;4.50;1.00;;;;;;5053624;28;20539;-73
2022/01/26 07:55:16;;;;;;;32.27;14.60;;;4.50;1.00;;;;;;5053264;28;20496;-74
2022/01/26 07:57:46;;;;;;;31.03;13.43;;;4.50;1.00;;;;;;5053976;28;20170;-74
2022/01/26 08:00:13;;;;;;;29.70;14.27;;;4.50;1.00;;;;;;5051938;28;21011;-74
2022/01/26 08:02:38;;;;;;;46.63;14.23;;;4.60;1.00;;;;;;5052745;28;20789;-73
2022/01/26 08:05:04;;;;;;;32.07;14.70;;;4.60;1.00;;;;;;5052646;28;20421;-73
2022/01/26 08:07:30;;;;;;;32.43;15.97;;;4.50;1.00;;;;;;5054017;28;20185;-73
2022/01/26 08:09:56;;;;;;;26.13;13.20;;;4.50;1.00;;;;;;5052952;28;20497;-73
2022/01/26 08:12:21;;;;;;;33.50;16.57;;;4.50;1.00;;;;;;5053660;28;20566;-74
2022/01/26 08:14:47;;;;;;;26.43;14.60;;;4.50;1.00;;;;;;5052449;28;20182;-73
2022/01/26 08:17:16;;;;;;;17.47;7.97;;;4.50;1.00;;;;;;5052227;28;20289;-74
2022/01/26 08:19:42;;;;;;;29.63;12.37;;;4.40;1.00;;;;;;5052866;28;20187;-73
2022/01/26 08:22:08;;;;;;;32.37;14.90;;;4.40;1.00;;;;;;5053632;28;20425;-73
2022/01/26 08:24:34;;;;;;;27.50;15.03;;;4.40;1.00;;;;;;5053545;28;20405;-73
2022/01/26 08:27:09;;;;;;;25.00;10.70;;;4.40;1.00;;;;;;5053634;28;20408;-74
2022/01/26 08:29:42;;;;;;;25.93;12.27;;;4.40;1.00;;;;;;5052726;28;20503;-73
2022/01/26 08:32:08;;;;;;;22.93;14.20;;;4.40;1.00;;;;;;5053531;28;20976;-74
2022/01/26 08:34:34;;;;;;;25.60;12.20;;;4.40;1.00;;;;;;5052785;28;20405;-73
2022/01/26 08:37:00;;;;;;;38.27;15.37;;;4.40;1.00;;;;;;5053248;28;20412;-73
2022/01/26 08:39:25;;;;;;;28.10;14.33;;;4.30;1.00;;;;;;5052627;28;20505;-74
2022/01/26 08:41:51;;;;;;;22.20;12.47;;;4.40;1.00;;;;;;5052249;28;20433;-73
2022/01/26 08:44:17;;;;;;;27.10;13.27;;;4.40;1.00;;;;;;5053278;28;20257;-73
2022/01/26 08:46:43;;;;;;;25.83;13.30;;;4.40;1.00;;;;;;5053267;28;20261;-74
2022/01/26 08:49:09;;;;;;;37.43;15.13;;;4.30;1.00;;;;;;5052336;28;20187;-74
2022/01/26 08:51:35;;;;;;;31.30;13.43;;;4.30;1.00;;;;;;5052457;28;20884;-73
2022/01/26 08:54:02;;;;;;;35.90;17.17;;;4.30;1.00;;;;;;5053344;28;20406;-72
2022/01/26 08:56:27;;;;;;;38.13;16.50;;;4.40;1.00;;;;;;5053144;28;20405;-73
2022/01/26 08:58:54;;;;;;;30.97;14.77;;;4.40;1.00;;;;;;5052197;28;20402;-74
2022/01/26 09:01:19;;;;;;;43.83;17.17;;;4.40;1.00;;;;;;5053064;28;20191;-74
2022/01/26 09:03:45;;;;;;;46.77;15.17;;;4.40;1.00;;;;;;5052974;28;20406;-72
2022/01/26 09:06:12;;;;;;;37.80;14.57;;;4.40;1.00;;;;;;5051911;28;20928;-74
2022/01/26 09:08:40;;;;;;;34.60;14.60;;;4.40;1.00;;;;;;5051371;28;20417;-73
2022/01/26 09:11:07;;;;;;;37.60;16.90;;;4.50;1.00;;;;;;5052732;28;20422;-73
2022/01/26 09:13:33;;;;;;;38.20;14.80;;;4.50;1.00;;;;;;5053011;28;20945;-73
2022/01/26 09:16:07;;;;;;;40.93;15.23;;;4.60;1.00;;;;;;5052439;28;20458;-72
2022/01/26 09:18:48;;;;;;;39.03;14.73;;;4.70;1.00;;;;;;5051985;28;20398;-74
2022/01/26 09:21:14;;;;;;;42.43;16.97;;;4.70;1.00;;;;;;5052713;28;20479;-73
2022/01/26 09:23:40;;;;;;;44.23;15.97;;;4.60;1.00;;;;;;5052904;28;20453;-74
2022/01/26 09:26:05;;;;;;;29.53;14.53;;;4.70;1.00;;;;;;5052330;28;20683;-73
2022/01/26 09:28:31;;;;;;;43.80;17.03;;;4.70;1.00;;;;;;5051926;28;20175;-74
2022/01/26 09:30:57;;;;;;;27.23;13.70;;;4.80;1.00;;;;;;5052533;28;20199;-74
2022/01/26 09:33:23;;;;;;;41.73;15.93;;;4.70;1.00;;;;;;5052803;28;20915;-72
2022/01/26 09:35:49;;;;;;;46.67;18.37;;;4.70;1.00;;;;;;5052678;28;20532;-72
2022/01/26 09:38:15;;;;;;;29.80;13.23;;;4.80;1.00;;;;;;5051642;28;20501;-73
2022/01/26 09:40:40;;;;;;;36.40;17.00;;;4.80;1.00;;;;;;5051672;28;20189;-74
2022/01/26 09:43:06;;;;;;;34.53;16.73;;;4.70;1.00;;;;;;5050920;28;20467;-74
2022/01/26 09:45:34;;;;;;;38.43;17.03;;;4.70;1.00;;;;;;5051746;28;20186;-73
2022/01/26 09:48:04;;;;;;;36.03;14.50;;;4.70;1.00;;;;;;5052720;28;20172;-72
2022/01/26 09:50:31;;;;;;;27.97;15.47;;;4.80;1.00;;;;;;5051448;28;20481;-72
2022/01/26 09:52:57;;;;;;;39.53;14.57;;;4.70;1.00;;;;;;5052414;28;20514;-73
2022/01/26 09:55:24;;;;;;;38.50;15.37;;;4.60;1.00;;;;;;5052585;28;20402;-74
2022/01/26 09:57:53;;;;;;;33.17;13.00;;;4.80;1.00;;;;;;5051489;28;20412;-73
2022/01/26 10:00:19;;;;;;;34.87;11.50;;;4.80;1.00;;;;;;5051561;28;20417;-73
2022/01/26 10:02:56;;;;;;;43.30;16.37;;;4.80;1.00;;;;;;5051041;28;20486;-72
2022/01/26 10:05:21;;;;;;;46.03;16.67;;;4.80;1.00;;;;;;5052432;28;20255;-73
2022/01/26 10:15:44;;;;;;;35.70;16.30;;;4.70;1.00;;;;;;5052274;28;20428;-73
2022/01/26 10:18:14;;;;;;;35.40;14.80;;;4.70;1.00;;;;;;5052550;28;20398;-72
2022/01/26 10:20:53;;;;;;;31.97;13.37;;;4.70;1.00;;;;;;5050884;28;20418;-75
2022/01/26 10:23:27;;;;;;;27.07;14.67;;;4.70;1.00;;;;;;5052123;28;20445;-72
2022/01/26 10:26:13;;;;;;;33.70;15.33;;;4.70;1.00;;;;;;5052299;28;20404;-73
2022/01/26 10:28:43;;;;;;;42.13;14.90;;;4.70;1.00;;;;;;5054857;28;20412;-74
2022/01/26 10:31:18;;;;;;;24.13;13.33;;;4.60;1.00;;;;;;5055544;28;20421;-73
2022/01/26 10:34:06;;;;;;;29.93;13.80;;;4.70;1.00;;;;;;5055675;28;20446;-73
2022/01/26 10:36:37;;;;;;;28.23;12.97;;;4.70;1.00;;;;;;5054378;28;20421;-72
2022/01/26 10:39:08;;;;;;;34.03;14.70;;;4.60;1.00;;;;;;5054179;28;20459;-74
2022/01/26 10:41:35;;;;;;;21.80;11.77;;;4.60;1.00;;;;;;5055404;28;20425;-73
2022/01/26 10:44:02;;;;;;;32.90;15.30;;;4.60;1.00;;;;;;5055641;28;20447;-73
2022/01/26 10:46:32;;;;;;;35.47;15.17;;;4.70;1.00;;;;;;5055508;28;20402;-72
2022/01/26 10:54:11;;;;;;;14.93;8.80;;;4.60;1.00;;;;;;5055389;28;20796;-73
2022/01/26 10:56:38;;;;;;;31.10;11.90;;;4.60;1.00;;;;;;5054899;28;20424;-73
2022/01/26 10:59:03;;;;;;;29.70;12.77;;;4.70;1.00;;;;;;5054192;28;20410;-71
2022/01/26 11:01:29;;;;;;;31.47;10.80;;;4.70;1.00;;;;;;5055296;28;20430;-74
2022/01/26 11:03:55;;;;;;;31.73;12.07;;;4.60;1.00;;;;;;5055185;28;20202;-73
2022/01/26 11:06:21;;;;;;;34.43;13.40;;;4.60;1.00;;;;;;5055254;28;20174;-73
2022/01/26 11:08:48;;;;;;;24.47;11.10;;;4.60;1.00;;;;;;5054315;28;20409;-72
2022/01/26 11:11:24;;;;;;;36.57;12.67;;;4.60;1.00;;;;;;5054940;28;20751;-73
2022/01/26 11:13:50;;;;;;;23.60;12.70;;;4.60;1.00;;;;;;5054902;28;20492;-73
2022/01/26 11:16:18;;;;;;;53.07;13.97;;;4.60;1.00;;;;;;5054410;28;20437;-73
2022/01/26 11:18:51;;;;;;;31.40;13.27;;;4.60;1.00;;;;;;5054045;28;20918;-74
2022/01/26 11:21:35;;;;;;;26.70;13.13;;;4.60;1.00;;;;;;5054770;28;20426;-73
2022/01/26 11:24:10;;;;;;;47.30;17.33;;;4.60;1.00;;;;;;5054809;28;20928;-73
2022/01/26 11:26:38;;;;;;;27.33;13.23;;;4.60;1.00;;;;;;5054838;28;20404;-72
2022/01/26 11:29:13;;;;;;;34.33;15.87;;;4.60;1.00;;;;;;5053791;28;20413;-74
2022/01/26 11:31:40;;;;;;;28.70;11.83;;;4.70;1.00;;;;;;5054486;28;20455;-74
2022/01/26 11:34:06;;;;;;;32.93;14.00;;;4.70;1.00;;;;;;5054004;28;20408;-73
2022/01/26 11:36:32;;;;;;;27.57;14.07;;;4.80;1.00;;;;;;5054555;28;20407;-72
2022/01/26 11:46:57;;;;;;;28.77;11.37;;;4.60;1.00;;;;;;5054313;28;20393;-74
2022/01/26 11:49:36;;;;;;;35.50;15.73;;;4.60;1.00;;;;;;5052221;28;20440;-73
2022/01/26 11:52:03;;;;;;;26.73;10.63;;;4.60;1.00;;;;;;5053596;28;20489;-73
2022/01/26 11:54:41;;;;;;;32.00;14.27;;;4.60;1.00;;;;;;5054164;28;20818;-74
2022/01/26 11:57:13;;;;;;;35.23;12.17;;;4.60;1.00;;;;;;5054245;28;20488;-72
2022/01/26 11:59:50;;;;;;;25.77;9.93;;;4.50;1.00;;;;;;5051973;28;20500;-74
2022/01/26 12:02:38;;;;;;;32.83;14.87;;;4.50;1.00;;;;;;5053879;28;20444;-74
2022/01/26 12:05:09;;;;;;;35.77;13.60;;;4.40;1.00;;;;;;5054034;28;20928;-74
2022/01/26 12:07:46;;;;;;;21.30;11.87;;;4.50;1.00;;;;;;5054038;28;20906;-74
2022/01/26 12:10:28;;;;;;;29.20;12.87;;;4.40;1.00;;;;;;5052870;28;20936;-74
2022/01/26 12:13:03;;;;;;;28.83;11.30;;;4.40;1.00;;;;;;5053350;28;20455;-74
2022/01/26 12:15:41;;;;;;;41.40;14.30;;;4.50;1.00;;;;;;5052638;28;20409;-72
2022/01/26 12:18:25;;;;;;;44.10;12.67;;;4.50;1.00;;;;;;5053804;28;20409;-72
2022/01/26 12:45:15;;;;;;;32.53;13.77;;;4.70;1.00;;;;;;5053348;28;20393;-73
2022/01/26 12:47:41;;;;;;;33.23;14.77;;;4.70;1.00;;;;;;5053069;28;20464;-74
2022/01/26 12:50:07;;;;;;;27.97;10.60;;;4.80;1.00;;;;;;5051117;28;20762;-74
2022/01/26 12:52:33;;;;;;;39.03;13.73;;;4.80;1.00;;;;;;5052989;28;20460;-74
2022/01/26 12:54:59;;;;;;;29.33;11.30;;;4.70;1.00;;;;;;5053049;28;20410;-74
2022/01/26 12:57:24;;;;;;;30.97;13.47;;;4.80;1.00;;;;;;5053277;28;20174;-73
2022/01/26 13:00:04;;;;;;;25.87;11.70;;;4.80;1.00;;;;;;5051208;28;20182;-74
2022/01/26 13:02:30;;;;;;;30.40;12.80;;;4.80;1.00;;;;;;5052926;28;20218;-74
2022/01/26 13:05:00;;;;;;;40.50;15.17;;;4.70;1.00;;;;;;5052424;28;20433;-74
2022/01/26 13:07:26;;;;;;;28.73;14.43;;;4.70;1.00;;;;;;5053089;28;20635;-74
2022/01/26 13:09:51;;;;;;;37.57;14.70;;;4.80;1.00;;;;;;5051992;28;20456;-74
2022/01/26 13:12:31;;;;;;;33.90;13.80;;;4.80;1.00;;;;;;5052881;28;20301;-73
2022/01/26 13:15:27;;;;;;;37.00;14.00;;;4.80;1.00;;;;;;5052890;28;20268;-74
2022/01/26 13:17:58;;;;;;;37.47;15.80;;;4.80;1.00;;;;;;5052534;28;20518;-75
2022/01/26 13:21:04;;;;;;;41.10;16.40;;;4.80;1.00;;;;;;5051850;28;20429;-75
2022/01/26 13:23:44;;;;;;;30.57;13.03;;;4.80;1.00;;;;;;5052692;28;20424;-74
2022/01/26 13:37:31;;;;;;;33.30;14.23;;;4.90;1.00;;;;;;4991288;28;20404;-75
2022/01/26 13:43:10;;;;;;;39.43;12.77;;;5.00;1.00;;;;;;5052440;28;20439;-73
2022/01/26 13:50:35;;;;;;;30.43;12.60;;;5.00;1.00;;;;;;5051524;28;20437;-74
2022/01/26 13:53:08;;;;;;;36.73;11.70;;;4.90;1.00;;;;;;5052441;28;20186;-75
2022/01/26 14:00:53;;;;;;;31.47;12.70;;;4.80;1.00;;;;;;5051918;28;20300;-73
2022/01/26 14:03:22;;;;;;;35.87;15.60;;;4.80;1.00;;;;;;5056310;28;20412;-74
2022/01/26 14:05:47;;;;;;;31.60;11.87;;;4.80;1.00;;;;;;5056194;28;20397;-74
2022/01/26 14:08:13;;;;;;;25.00;10.40;;;4.80;1.00;;;;;;5056329;28;20455;-74
2022/01/26 14:10:43;;;;;;;36.10;14.93;;;4.80;1.00;;;;;;5055248;28;20207;-74
2022/01/26 14:13:09;;;;;;;32.90;14.93;;;4.80;1.00;;;;;;5056005;28;20216;-73
2022/01/26 14:15:42;;;;;;;32.43;15.50;;;4.80;1.00;;;;;;5054811;28;20482;-74
2022/01/26 14:20:45;;;;;;;30.90;12.63;;;4.90;1.00;;;;;;5054567;28;20423;-74
2022/01/26 14:23:43;;;;;;;43.57;16.23;;;4.90;1.00;;;;;;5054703;28;20895;-74
2022/01/26 14:26:10;;;;;;;44.23;14.03;;;4.90;1.00;;;;;;5055874;28;20429;-75
2022/01/26 14:28:37;;;;;;;24.67;11.80;;;4.90;1.00;;;;;;5055029;28;20463;-75
2022/01/26 15:30:15;;;;;;;32.23;13.47;;;5.10;1.00;;;;;;5053566;28;20935;-74
2022/01/26 15:43:34;;;;;;;40.80;14.47;;;5.00;1.00;;;;;;5054524;28;20414;-74
2022/01/26 15:48:53;;;;;;;22.17;11.33;;;5.00;1.00;;;;;;5053718;28;21062;-74
2022/01/26 16:44:22;;;;;;;12.00;7.50;;;5.20;33.70;;;;;;5032465;28;20398;-72
2022/01/26 18:38:42;;;;;;;16.23;10.33;;;5.90;1.00;;;;;;5055404;28;20882;-73
2022/01/26 18:49:12;;;;;;;26.63;10.63;;;6.00;1.00;;;;;;5053493;28;20425;-74
2022/01/26 18:51:42;;;;;;;25.73;9.37;;;6.00;1.00;;;;;;5054778;28;20923;-74
2022/01/26 18:54:10;;;;;;;30.03;11.70;;;6.00;1.00;;;;;;5055435;28;20409;-75
2022/01/26 18:56:36;;;;;;;24.03;11.87;;;6.00;1.00;;;;;;5055474;28;20902;-74
2022/01/26 18:59:03;;;;;;;26.97;11.30;;;6.10;1.00;;;;;;5054455;28;20404;-73
2022/01/26 19:01:29;;;;;;;23.80;11.90;;;6.10;1.00;;;;;;5053796;28;20441;-74
2022/01/26 19:03:55;;;;;;;19.83;10.90;;;6.10;1.00;;;;;;5055486;28;20401;-74
2022/01/26 19:06:21;;;;;;;41.83;13.47;;;6.10;1.00;;;;;;5053994;28;20701;-74
2022/01/26 19:08:47;;;;;;;20.07;9.33;;;6.10;1.00;;;;;;5054283;28;20246;-75
2022/01/26 19:11:13;;;;;;;39.97;12.97;;;6.10;1.00;;;;;;5054510;28;20512;-74
2022/01/26 19:13:44;;;;;;;27.73;12.13;;;6.10;1.00;;;;;;5054922;28;20592;-75
2022/01/26 19:16:20;;;;;;;21.50;10.00;;;6.10;1.00;;;;;;5054982;28;20805;-75
2022/01/26 19:18:52;;;;;;;31.50;13.13;;;6.10;1.00;;;;;;5053975;28;20401;-75
2022/01/26 19:24:00;;;;;;;27.23;11.57;;;6.10;1.00;;;;;;5054879;28;20401;-75
2022/01/26 19:26:33;;;;;;;28.03;13.93;;;6.10;1.00;;;;;;5054860;28;20174;-75
2022/01/26 19:29:11;;;;;;;25.43;13.93;;;6.10;1.00;;;;;;5053881;28;20409;-75
2022/01/26 19:45:44;;;;;;;32.37;12.60;;;6.10;1.00;;;;;;5054638;28;20409;-76
2022/01/26 19:53:09;;;;;;;20.27;12.20;;;6.10;1.00;;;;;;5054316;28;20455;-75
2022/01/26 19:55:35;;;;;;;35.40;13.07;;;6.10;1.00;;;;;;5054219;28;20466;-76
2022/01/26 19:58:01;;;;;;;25.03;12.30;;;6.10;1.00;;;;;;5054231;28;20799;-75
2022/01/26 20:00:28;;;;;;;30.83;12.87;;;6.10;1.00;;;;;;5052920;28;20225;-74
2022/01/26 20:02:54;;;;;;;20.77;11.50;;;6.10;1.00;;;;;;5052590;28;20417;-74
2022/01/26 20:05:19;;;;;;;20.47;10.67;;;6.10;1.00;;;;;;5054159;28;20416;-75
2022/01/26 20:07:52;;;;;;;33.30;13.50;;;6.10;1.00;;;;;;5053547;28;20409;-75
2022/01/26 20:10:24;;;;;;;23.53;12.60;;;6.10;1.00;;;;;;5052716;28;20427;-75
2022/01/26 20:12:59;;;;;;;21.43;12.00;;;6.00;1.00;;;;;;5053909;28;20458;-75
2022/01/26 20:15:25;;;;;;;28.17;12.63;;;6.00;1.00;;;;;;5053948;28;20412;-75
2022/01/26 20:17:51;;;;;;;25.47;13.80;;;6.10;1.00;;;;;;5052553;28;20420;-75
2022/01/26 20:20:17;;;;;;;25.20;13.27;;;6.10;1.00;;;;;;5052797;28;20798;-74
2022/01/26 20:22:43;;;;;;;30.27;11.90;;;6.00;1.00;;;;;;5053834;28;20408;-74